Time;durP1;ratioP1;P1;durP2;ratioP2;P2;SDS_P1;SDS_P2;PMS_P1;PMS_P2;Temp;Humidity;BMP_temperature;BMP_pressure;BME280_temperature;BME280_humidity;BME280_pressure;Samples;Min_cycle;Max_cycle;Signal;HPM_P1;HPM_P2
2023/03/07 00:00:33;;;;;;;;;26.00;23.40;;;;;9.00;51.81;100450.25;2044607;28;3578313;-74
2023/03/07 00:01:45;;;;;;;;;23.67;22.00;;;;;9.00;51.83;100444.16;2029154;28;3589810;-74
2023/03/07 00:02:57;;;;;;;;;23.33;22.33;;;;;8.99;52.04;100443.28;2032385;28;3573145;-73
2023/03/07 00:04:09;;;;;;;;;26.67;21.33;;;;;8.99;51.51;100445.03;2033077;28;3575264;-74
2023/03/07 00:05:21;;;;;;;;;28.00;21.60;;;;;8.97;51.74;100442.47;2043625;28;3592920;-74
2023/03/07 00:06:32;;;;;;;;;26.00;19.00;;;;;8.95;51.46;100436.44;2014409;28;3581471;-74
2023/03/07 00:07:44;;;;;;;;;23.60;22.00;;;;;8.94;51.91;100436.50;2044301;28;3581453;-74
2023/03/07 00:08:59;;;;;;;;;22.33;21.33;;;;;8.92;52.00;100439.13;2039492;28;3575216;-74
2023/03/07 00:10:10;;;;;;;;;23.50;21.50;;;;;8.93;51.80;100445.25;2025351;27;2829452;-74
2023/03/07 00:11:21;;;;;;;;;30.00;21.67;;;;;8.90;52.13;100435.72;2024914;27;3595066;-75
2023/03/07 00:12:33;;;;;;;;;25.67;21.00;;;;;8.91;51.87;100442.69;2009058;27;3577315;-74
2023/03/07 00:13:45;;;;;;;;;22.67;19.67;;;;;8.91;51.35;100434.81;2038505;28;2825315;-74
2023/03/07 00:14:56;;;;;;;;;22.00;19.67;;;;;8.89;52.09;100436.59;2019006;28;3580498;-74
2023/03/07 00:16:11;;;;;;;;;22.00;15.50;;;;;8.89;51.69;100439.22;2040153;27;2831554;-74
2023/03/07 00:17:21;;;;;;;;;23.50;21.00;;;;;8.87;51.81;100434.03;2002757;27;2829449;-74
2023/03/07 00:18:33;;;;;;;;;23.00;19.67;;;;;8.87;52.10;100436.66;2034423;28;3574182;-74
2023/03/07 00:19:46;;;;;;;;;23.67;17.00;;;;;8.87;52.00;100435.78;2028470;28;3561695;-74
2023/03/07 00:21:04;;;;;;;;;26.67;22.67;;;;;8.86;51.74;100434.09;2016550;28;3596422;-73
2023/03/07 00:22:16;;;;;;;;;24.00;19.67;;;;;8.86;51.67;100436.72;2023755;27;3576266;-74
2023/03/07 00:23:28;;;;;;;;;24.00;21.67;;;;;8.85;51.68;100424.50;2034537;27;3573152;-74
2023/03/07 00:24:39;;;;;;;;;25.00;18.80;;;;;8.86;51.86;100426.22;2044528;28;1846146;-74
2023/03/07 00:26:02;;;;;;;;;25.00;19.67;;;;;8.85;51.90;100433.22;2023910;27;3578369;-74
2023/03/07 00:27:14;;;;;;;;;25.33;22.00;;;;;8.85;52.03;100429.75;2019325;27;3585712;-73
2023/03/07 00:28:26;;;;;;;;;23.00;21.00;;;;;8.85;51.96;100428.00;2039143;28;3574182;-73
2023/03/07 00:29:38;;;;;;;;;28.33;22.33;;;;;8.86;52.24;100428.84;2024202;28;3592931;-74
2023/03/07 00:30:49;;;;;;;;;22.00;17.33;;;;;8.85;52.13;100425.38;2037275;28;3568447;-74
2023/03/07 00:32:01;;;;;;;;;20.67;17.00;;;;;8.86;52.11;100424.47;2037761;27;2823292;-73
2023/03/07 00:33:13;;;;;;;;;21.00;19.33;;;;;8.87;51.98;100425.31;2015842;28;3569026;-74
2023/03/07 00:34:25;;;;;;;;;21.67;20.00;;;;;8.86;51.83;100421.84;2039289;28;3562744;-73
2023/03/07 00:35:36;;;;;;;;;23.00;20.67;;;;;8.86;51.72;100423.63;2038290;28;3568993;-74
2023/03/07 00:36:48;;;;;;;;;26.33;22.33;;;;;8.84;52.12;100413.16;2031409;28;3585664;-73
2023/03/07 00:38:00;;;;;;;;;25.33;19.00;;;;;8.84;51.44;100420.19;2040439;27;3572127;-73
2023/03/07 00:39:12;;;;;;;;;18.67;15.00;;;;;8.86;51.73;100418.38;2040486;27;2821139;-73
2023/03/07 00:40:24;;;;;;;;;24.67;21.67;;;;;8.86;52.04;100426.22;2023627;28;3581474;-73
2023/03/07 00:41:36;;;;;;;;;25.33;17.67;;;;;8.84;51.61;100415.78;2039076;28;3579773;-73
2023/03/07 00:42:48;;;;;;;;;19.80;19.20;;;;;8.84;51.97;100420.19;2036757;28;3564159;-73
2023/03/07 00:44:00;;;;;;;;;26.00;21.67;;;;;8.84;51.62;100422.81;2039530;28;3582551;-74
2023/03/07 00:45:12;;;;;;;;;20.00;17.67;;;;;8.81;52.01;100423.75;2035370;28;2833694;-73
2023/03/07 00:46:25;;;;;;;;;21.33;20.00;;;;;8.81;51.86;100420.28;2023699;27;3573169;-73
2023/03/07 00:47:36;;;;;;;;;22.67;17.33;;;;;8.81;52.00;100417.66;2023698;27;3568971;-74
2023/03/07 00:48:48;;;;;;;;;24.67;20.00;;;;;8.79;51.92;100409.81;2037540;28;3579426;-73
2023/03/07 00:50:00;;;;;;;;;25.00;19.67;;;;;8.81;51.76;100412.41;2025867;28;3571093;-73
2023/03/07 00:51:14;;;;;;;;;23.00;18.00;;;;;8.81;51.72;100409.78;2038846;28;3571110;-73
2023/03/07 00:52:25;;;;;;;;;21.33;19.33;;;;;8.81;51.71;100413.28;2008746;28;3558581;-74
2023/03/07 00:53:37;;;;;;;;;22.00;22.00;;;;;8.80;51.76;100408.94;2036901;28;3576297;-73
2023/03/07 00:54:49;;;;;;;;;28.67;20.00;;;;;8.80;51.85;100416.78;2037634;28;3603376;-73
2023/03/07 00:56:03;;;;;;;;;22.67;19.00;;;;;8.79;52.00;100407.19;2038753;28;3575255;-74
2023/03/07 00:57:16;;;;;;;;;21.67;19.50;;;;;8.80;51.57;100408.06;2051603;28;1844105;-74
2023/03/07 00:58:30;;;;;;;;;24.33;20.33;;;;;8.80;52.07;100402.81;1997458;28;3578368;-73
2023/03/07 00:59:41;;;;;;;;;24.33;20.33;;;;;8.80;52.05;100402.81;2018180;28;3573164;-74
2023/03/07 01:00:53;;;;;;;;;27.67;19.67;;;;;8.78;51.58;100397.63;2039307;28;3587775;-73
2023/03/07 01:02:05;;;;;;;;;19.67;19.33;;;;;8.77;52.13;100401.16;2034124;27;3570037;-73
2023/03/07 01:03:17;;;;;;;;;27.00;20.75;;;;;8.78;51.94;100395.88;2043727;27;1842543;-73
2023/03/07 01:04:28;;;;;;;;;22.33;19.67;;;;;8.77;51.90;100388.91;1992627;28;3562728;-74
2023/03/07 01:05:40;;;;;;;;;23.33;19.67;;;;;8.77;52.01;100386.28;2031766;28;3574229;-73
2023/03/07 01:06:52;;;;;;;;;23.00;18.00;;;;;8.77;51.80;100385.44;2031519;28;3570055;-73
2023/03/07 01:08:04;;;;;;;;;22.67;17.67;;;;;8.77;51.94;100388.91;2039590;27;3576280;-74
2023/03/07 01:09:16;;;;;;;;;28.33;20.33;;;;;8.78;51.94;100385.41;2036117;27;3605443;-74
2023/03/07 01:10:28;;;;;;;;;27.50;23.00;;;;;8.77;52.20;100381.06;2041935;28;1836764;-73
2023/03/07 01:11:39;;;;;;;;;22.67;20.00;;;;;8.80;52.07;100381.84;2000652;27;3566921;-73
2023/03/07 01:12:52;;;;;;;;;27.33;17.67;;;;;8.80;52.02;100381.84;2056321;27;2854970;-73
2023/03/07 01:14:05;;;;;;;;;26.33;20.50;;;;;8.80;51.90;100381.84;2039056;27;2852305;-74
2023/03/07 01:15:17;;;;;;;;;27.00;20.00;;;;;8.80;51.56;100376.63;2026488;27;3588731;-74
2023/03/07 01:16:35;;;;;;;;;23.80;21.80;;;;;8.79;51.95;100378.38;2022211;28;3582526;-74
2023/03/07 01:17:46;;;;;;;;;21.00;17.67;;;;;8.80;51.54;100371.38;2022877;28;3563275;-73
2023/03/07 01:19:02;;;;;;;;;23.00;19.00;;;;;8.80;51.78;100371.38;2038994;27;3571550;-74
2023/03/07 01:20:14;;;;;;;;;25.67;23.67;;;;;8.80;51.92;100376.63;2023453;28;3581474;-74
2023/03/07 01:21:29;;;;;;;;;23.67;19.33;;;;;8.78;51.79;100380.16;2039501;27;3583962;-74
2023/03/07 01:22:40;;;;;;;;;23.67;22.00;;;;;8.78;51.95;100372.28;2023084;27;3569012;-74
2023/03/07 01:23:53;;;;;;;;;25.67;24.33;;;;;8.78;51.63;100368.81;2037890;27;3575244;-74
2023/03/07 01:25:03;;;;;;;;;21.00;14.50;;;;;8.77;51.96;100365.31;2023435;27;2821091;-74
2023/03/07 01:26:22;;;;;;;;;20.00;18.67;;;;;8.77;52.28;100362.72;2010142;27;3569989;-73
2023/03/07 01:27:34;;;;;;;;;24.67;20.33;;;;;8.77;51.79;100362.72;2023166;28;3579406;-74
2023/03/07 01:28:46;;;;;;;;;23.00;20.00;;;;;8.76;51.69;100360.16;2030546;27;3585667;-74
2023/03/07 01:29:57;;;;;;;;;20.67;19.00;;;;;8.75;51.73;100356.66;2015779;28;3564867;-74
2023/03/07 01:31:09;;;;;;;;;22.50;22.50;;;;;8.74;51.85;100364.59;2044869;28;1848262;-74
2023/03/07 01:32:21;;;;;;;;;23.80;17.40;;;;;8.74;51.70;100356.72;2013154;28;2839848;-74
2023/03/07 01:33:34;;;;;;;;;26.83;21.83;;;;;8.74;51.59;100360.19;2036313;27;2842941;-74
2023/03/07 01:34:46;;;;;;;;;26.00;23.33;;;;;8.73;51.74;100355.84;2014297;28;3580429;-74
2023/03/07 01:35:58;;;;;;;;;21.67;20.33;;;;;8.73;51.85;100353.22;2031525;28;3568985;-74
2023/03/07 01:37:11;;;;;;;;;23.33;18.17;;;;;8.72;51.87;100350.66;2057695;28;2833567;-73
2023/03/07 01:38:23;;;;;;;;;24.33;20.67;;;;;8.73;51.83;100358.47;2019064;28;3580479;-73
2023/03/07 01:39:35;;;;;;;;;29.40;23.20;;;;;8.71;51.97;100349.81;2045375;27;3596056;-73
2023/03/07 01:40:47;;;;;;;;;27.67;20.33;;;;;8.70;51.77;100337.59;2016705;28;3591893;-73
2023/03/07 01:41:59;;;;;;;;;29.00;24.33;;;;;8.71;51.89;100335.84;2037826;27;3572123;-74
2023/03/07 01:43:26;;;;;;;;;22.00;19.33;;;;;8.71;51.84;100336.72;2035668;28;3582543;-73
2023/03/07 01:45:34;;;;;;;;;21.33;15.67;;;;;8.70;51.89;100334.97;2023005;27;2833631;-73
2023/03/07 01:46:52;;;;;;;;;27.29;22.71;;;;;8.70;51.99;100334.13;2051422;28;1834737;-74
2023/03/07 01:48:04;;;;;;;;;23.40;21.60;;;;;8.70;51.92;100334.13;2034410;28;2852320;-73
2023/03/07 01:49:21;;;;;;;;;23.67;22.33;;;;;8.69;51.84;100333.28;2010248;28;3568017;-73
2023/03/07 01:50:32;;;;;;;;;29.67;22.33;;;;;8.69;51.99;100325.44;2023215;28;3585669;-74
2023/03/07 01:51:50;;;;;;;;;19.80;19.00;;;;;8.68;52.17;100328.94;2045005;28;3575216;-74
2023/03/07 01:53:01;;;;;;;;;24.67;21.67;;;;;8.69;52.18;100322.81;2021017;28;3579414;-74
2023/03/07 01:54:16;;;;;;;;;23.67;20.00;;;;;8.69;52.36;100322.81;2037590;27;3579429;-73
2023/03/07 01:55:31;;;;;;;;;30.00;25.00;;;;;8.68;52.18;100326.31;2024785;28;3571050;-73
2023/03/07 01:56:45;;;;;;;;;23.67;19.00;;;;;8.68;52.21;100326.31;2023889;28;3563778;-74
2023/03/07 01:58:01;;;;;;;;;23.00;19.67;;;;;8.69;51.77;100322.81;2022828;28;3581466;-73
2023/03/07 01:59:18;;;;;;;;;15.00;14.00;;;;;8.69;52.35;100320.19;2018761;28;2795075;-73
2023/03/07 02:00:29;;;;;;;;;18.00;17.67;;;;;8.69;52.21;100314.94;2024732;27;2829841;-73
2023/03/07 02:01:40;;;;;;;;;19.67;17.67;;;;;8.70;52.32;100314.03;2024020;27;2827555;-74
2023/03/07 02:03:05;;;;;;;;;23.33;18.33;;;;;8.70;51.70;100314.03;2016651;28;3569345;-74
2023/03/07 02:04:27;;;;;;;;;26.00;20.00;;;;;8.69;52.34;100312.31;2018006;28;2848185;-73
2023/03/07 02:05:44;;;;;;;;;22.67;22.67;;;;;8.71;51.97;100314.88;1998597;28;3575208;-73
2023/03/07 02:06:55;;;;;;;;;24.67;19.33;;;;;8.70;52.15;100308.78;2017597;28;3579406;-73
2023/03/07 02:08:10;;;;;;;;;20.50;19.75;;;;;8.70;51.99;100303.53;2050712;28;1844076;-73
2023/03/07 02:09:24;;;;;;;;;22.33;20.00;;;;;8.70;52.20;100298.28;1996687;28;3575259;-73
2023/03/07 02:10:37;;;;;;;;;20.00;18.33;;;;;8.71;52.34;100300.03;2023594;27;3571064;-74
2023/03/07 02:11:49;;;;;;;;;23.33;18.00;;;;;8.71;52.22;100296.53;2022218;28;3564827;-73
2023/03/07 02:13:01;;;;;;;;;24.33;22.33;;;;;8.71;51.75;100283.44;2025020;27;3572119;-73
2023/03/07 02:14:14;;;;;;;;;21.33;18.17;;;;;8.69;51.97;100291.38;2053302;28;1844112;-73
2023/03/07 02:15:26;;;;;;;;;26.67;23.00;;;;;8.69;52.22;100291.38;2023690;28;3585632;-74
2023/03/07 02:16:40;;;;;;;;;29.83;23.33;;;;;8.67;52.06;100280.03;2046242;28;2857516;-74
2023/03/07 02:17:52;;;;;;;;;23.33;19.67;;;;;8.68;52.67;100284.41;2023035;28;3572111;-73
2023/03/07 02:19:20;;;;;;;;;27.33;24.67;;;;;8.69;52.02;100286.13;2023067;28;3580464;-74
2023/03/07 02:21:11;;;;;;;;;24.33;16.00;;;;;8.69;51.97;100277.41;2015952;28;3574213;-73
2023/03/07 02:22:23;;;;;;;;;21.33;18.00;;;;;8.69;52.59;100282.63;2016477;28;2829531;-73
2023/03/07 02:23:55;;;;;;;;;23.50;21.50;;;;;8.68;52.36;100283.53;2025917;28;2831507;-73
2023/03/07 02:25:17;;;;;;;;;24.67;20.33;;;;;8.68;52.21;100284.41;2024487;27;3573145;-73
2023/03/07 02:26:31;;;;;;;;;27.00;19.00;;;;;8.67;52.50;100277.44;2026260;27;2843338;-73
2023/03/07 02:27:44;;;;;;;;;25.33;19.67;;;;;8.68;52.33;100279.16;2000338;27;3573160;-73
2023/03/07 02:28:56;;;;;;;;;22.00;15.00;;;;;8.66;52.31;100271.34;2024435;28;2825309;-73
2023/03/07 02:30:07;;;;;;;;;22.50;19.50;;;;;8.69;52.04;100280.88;2001576;28;2837765;-73
2023/03/07 02:31:19;;;;;;;;;30.00;22.67;;;;;8.66;52.19;100271.34;2007877;27;3592928;-73
2023/03/07 02:32:31;;;;;;;;;22.40;19.00;;;;;8.66;52.08;100271.34;2035730;28;3577298;-73
2023/03/07 02:33:43;;;;;;;;;23.33;19.00;;;;;8.66;52.48;100270.50;2026763;28;3575640;-74
2023/03/07 02:34:55;;;;;;;;;25.33;20.00;;;;;8.67;52.60;100269.56;2037928;28;3571067;-74
2023/03/07 02:36:10;;;;;;;;;28.33;20.67;;;;;8.68;51.98;100267.81;2041154;27;3585647;-73
2023/03/07 02:37:26;;;;;;;;;23.67;19.00;;;;;8.65;51.89;100259.16;2024566;27;3574187;-73
2023/03/07 02:38:40;;;;;;;;;21.00;15.50;;;;;8.65;51.98;100258.28;2022990;28;2822144;-73
2023/03/07 02:39:53;;;;;;;;;25.33;20.67;;;;;8.64;52.10;100257.41;1994013;28;3583624;-73
2023/03/07 02:41:06;;;;;;;;;23.67;21.00;;;;;8.63;52.24;100260.97;2024601;27;3565849;-73
2023/03/07 02:42:21;;;;;;;;;21.33;19.33;;;;;8.63;51.72;100257.47;2024307;27;3577312;-73
2023/03/07 02:43:32;;;;;;;;;26.00;21.67;;;;;8.61;52.50;100251.44;2024057;27;3593982;-73
2023/03/07 02:44:46;;;;;;;;;24.17;20.33;;;;;8.61;51.97;100256.69;2029528;28;2836692;-74
2023/03/07 02:45:58;;;;;;;;;28.00;23.67;;;;;8.60;52.09;100262.81;1998680;28;3586690;-73
2023/03/07 02:47:10;;;;;;;;;24.33;21.33;;;;;8.59;51.85;100255.88;2040994;27;3561706;-73
2023/03/07 02:48:20;;;;;;;;;24.00;21.50;;;;;8.58;51.92;100259.34;2036406;28;2839204;-74
2023/03/07 02:49:32;;;;;;;;;20.00;18.67;;;;;8.55;52.11;100258.56;2012027;27;3556454;-74
2023/03/07 02:50:43;;;;;;;;;21.25;18.50;;;;;8.53;51.86;100251.66;2050818;28;1839881;-73
2023/03/07 02:51:59;;;;;;;;;28.00;22.00;;;;;8.54;52.22;100250.75;1992673;28;3585680;-73
2023/03/07 02:53:10;;;;;;;;;28.00;22.00;;;;;8.51;51.88;100249.09;2013231;28;3592944;-73
2023/03/07 02:54:23;;;;;;;;;18.67;17.67;;;;;8.49;51.69;100253.53;2038519;28;3558616;-73
2023/03/07 02:55:36;;;;;;;;;24.00;19.20;;;;;8.50;52.01;100254.38;2043530;28;2840850;-74
2023/03/07 02:56:48;;;;;;;;;25.00;18.33;;;;;8.49;52.49;100252.66;2016481;28;3579398;-74
2023/03/07 02:58:01;;;;;;;;;24.50;18.83;;;;;8.48;52.36;100249.19;2056810;28;2844031;-73
2023/03/07 02:59:13;;;;;;;;;21.33;19.33;;;;;8.48;52.15;100249.19;2016686;28;3575304;-74
2023/03/07 03:00:25;;;;;;;;;22.33;19.00;;;;;8.48;51.86;100248.31;2040005;28;3575263;-73
2023/03/07 03:01:36;;;;;;;;;20.33;16.00;;;;;8.46;52.10;100240.53;2037926;28;3564832;-73
2023/03/07 03:02:48;;;;;;;;;23.67;20.33;;;;;8.47;52.20;100250.06;2037335;27;3571144;-74
2023/03/07 03:04:00;;;;;;;;;20.33;16.33;;;;;8.47;52.36;100238.78;2035226;28;3556715;-74
2023/03/07 03:05:12;;;;;;;;;27.00;20.00;;;;;8.46;52.11;100245.75;2035900;28;3593985;-73
2023/03/07 03:06:23;;;;;;;;;25.50;16.00;;;;;8.44;52.38;100239.72;2030453;28;2851333;-74
2023/03/07 03:07:35;;;;;;;;;24.67;19.67;;;;;8.42;52.02;100245.00;2010711;28;3564783;-74
2023/03/07 03:08:47;;;;;;;;;21.00;16.67;;;;;8.42;52.06;100236.31;2039899;28;2816986;-73
2023/03/07 03:09:57;;;;;;;;;25.00;19.00;;;;;8.42;52.14;100241.53;2023004;28;2848700;-74
2023/03/07 03:11:09;;;;;;;;;22.33;17.67;;;;;8.41;52.05;100234.56;2016862;27;2826348;-74
2023/03/07 03:12:20;;;;;;;;;23.00;18.33;;;;;8.42;52.21;100241.53;2022249;28;3577358;-73
2023/03/07 03:13:32;;;;;;;;;20.00;17.67;;;;;8.42;52.36;100231.06;2039612;28;3564300;-73
2023/03/07 03:14:44;;;;;;;;;24.00;19.00;;;;;8.42;52.65;100233.69;2038668;28;3581520;-74
2023/03/07 03:15:57;;;;;;;;;21.00;20.33;;;;;8.44;52.50;100234.50;2031489;28;3576285;-73
2023/03/07 03:17:08;;;;;;;;;22.33;20.67;;;;;8.43;52.54;100228.38;2024007;28;3564804;-73
2023/03/07 03:18:20;;;;;;;;;21.67;19.33;;;;;8.45;52.10;100236.19;2035880;27;3566894;-73
2023/03/07 03:19:32;;;;;;;;;21.33;18.00;;;;;8.44;52.70;100231.88;2039809;28;3558586;-74
2023/03/07 03:20:44;;;;;;;;;22.00;18.00;;;;;8.44;52.15;100232.69;2032513;28;3563781;-73
2023/03/07 03:21:56;;;;;;;;;22.00;18.00;;;;;8.43;51.85;100227.53;2033791;27;3565869;-73
2023/03/07 03:23:07;;;;;;;;;20.50;18.50;;;;;8.43;52.14;100227.53;2023249;28;2813822;-73
2023/03/07 03:24:18;;;;;;;;;28.33;17.67;;;;;8.41;52.03;100227.59;2005631;27;3594991;-74
2023/03/07 03:25:29;;;;;;;;;15.50;13.50;;;;;8.40;51.85;100222.38;2037175;28;2809642;-74
2023/03/07 03:26:41;;;;;;;;;21.40;18.20;;;;;8.40;51.95;100215.38;2017613;28;3571030;-73
2023/03/07 03:27:53;;;;;;;;;24.00;20.00;;;;;8.40;51.90;100225.00;2033132;28;3585681;-73
2023/03/07 03:29:06;;;;;;;;;19.67;17.67;;;;;8.40;52.37;100214.50;2052655;28;2819437;-73
2023/03/07 03:30:18;;;;;;;;;23.00;16.67;;;;;8.39;52.21;100218.91;2017839;28;3567965;-73
2023/03/07 03:31:31;;;;;;;;;18.25;15.00;;;;;8.39;52.13;100216.31;2053807;28;1857561;-74
2023/03/07 03:32:43;;;;;;;;;19.00;17.00;;;;;8.40;52.09;100214.50;2023529;28;3552706;-73
2023/03/07 03:33:57;;;;;;;;;23.33;19.67;;;;;8.41;52.61;100218.84;2048782;28;1844065;-73
2023/03/07 03:35:09;;;;;;;;;19.67;17.67;;;;;8.41;52.52;100218.84;2022758;28;3566887;-73
2023/03/07 03:36:24;;;;;;;;;20.33;18.67;;;;;8.41;52.12;100216.25;2023307;28;3560641;-73
2023/03/07 03:37:35;;;;;;;;;21.33;18.67;;;;;8.42;52.69;100217.97;2024202;27;3558581;-74
2023/03/07 03:38:48;;;;;;;;;23.67;19.33;;;;;8.41;52.17;100221.47;2039955;27;3581513;-74
2023/03/07 03:39:59;;;;;;;;;22.00;19.67;;;;;8.40;52.30;100219.75;2024854;28;3566931;-74
2023/03/07 03:41:14;;;;;;;;;25.33;21.33;;;;;8.37;52.52;100212.84;2040221;28;3583611;-74
2023/03/07 03:42:25;;;;;;;;;18.50;17.50;;;;;8.36;52.48;100205.06;2024156;27;2833610;-74
2023/03/07 03:43:37;;;;;;;;;26.00;22.67;;;;;8.36;52.23;100208.53;2017871;27;3578362;-74
2023/03/07 03:44:49;;;;;;;;;27.33;19.00;;;;;8.35;52.45;100208.56;2037865;28;3586694;-74
2023/03/07 03:46:01;;;;;;;;;24.00;20.33;;;;;8.35;52.00;100208.56;2038316;28;3568978;-74
2023/03/07 03:47:13;;;;;;;;;26.67;22.00;;;;;8.32;52.55;100197.28;2022458;28;3592940;-74
2023/03/07 03:48:25;;;;;;;;;26.00;21.00;;;;;8.33;52.13;100201.63;2038650;28;3581509;-74
2023/03/07 03:49:37;;;;;;;;;20.33;20.00;;;;;8.33;52.33;100196.41;2022759;28;3573156;-74
2023/03/07 03:50:49;;;;;;;;;17.67;16.67;;;;;8.34;52.99;100197.25;2032621;28;2826694;-74
2023/03/07 03:52:03;;;;;;;;;22.00;19.00;;;;;8.33;52.45;100191.16;2046804;28;1839904;-74
2023/03/07 03:53:16;;;;;;;;;17.00;17.00;;;;;8.33;52.40;100199.00;2019495;28;2837726;-74
2023/03/07 03:54:28;;;;;;;;;28.33;22.00;;;;;8.33;52.38;100196.41;2016444;28;3589807;-73
2023/03/07 03:55:39;;;;;;;;;24.00;20.50;;;;;8.33;52.36;100196.41;2021155;28;2831508;-74
2023/03/07 03:56:52;;;;;;;;;23.33;19.33;;;;;8.32;52.32;100194.66;2016277;28;3566856;-74
2023/03/07 03:58:06;;;;;;;;;17.43;16.29;;;;;8.33;52.52;100185.91;2052051;28;1832550;-74
2023/03/07 03:59:18;;;;;;;;;24.00;23.00;;;;;8.33;52.44;100190.28;2016489;28;3575240;-74
2023/03/07 04:00:31;;;;;;;;;23.83;20.00;;;;;8.35;52.26;100193.72;2057589;27;2843999;-74
2023/03/07 04:01:42;;;;;;;;;17.50;16.00;;;;;8.36;52.34;100191.97;2018225;28;2824641;-74
2023/03/07 04:02:54;;;;;;;;;23.67;20.33;;;;;8.35;52.31;100190.22;2018354;27;3566918;-74
2023/03/07 04:04:06;;;;;;;;;26.00;21.67;;;;;8.33;52.27;100190.28;2041385;28;3577339;-73
2023/03/07 04:05:17;;;;;;;;;21.33;17.00;;;;;8.34;52.01;100181.53;2040255;27;3566903;-74
2023/03/07 04:06:32;;;;;;;;;26.00;22.00;;;;;8.33;52.40;100185.91;2037675;27;3581478;-74
2023/03/07 04:07:44;;;;;;;;;23.00;20.00;;;;;8.33;52.51;100185.06;2023992;27;3589830;-74
2023/03/07 04:08:57;;;;;;;;;22.50;16.67;;;;;8.34;52.67;100181.53;2053650;28;2827332;-74
2023/03/07 04:10:09;;;;;;;;;20.67;18.00;;;;;8.34;52.40;100186.78;2005501;28;3573163;-74
2023/03/07 04:11:22;;;;;;;;;21.33;20.33;;;;;8.33;52.29;100185.91;2022429;28;3569510;-74
2023/03/07 04:12:33;;;;;;;;;25.00;19.67;;;;;8.33;52.35;100178.06;2009880;28;2834664;-74
2023/03/07 04:13:44;;;;;;;;;24.00;21.00;;;;;8.35;52.51;100177.13;2018170;28;2833611;-74
2023/03/07 04:14:55;;;;;;;;;25.00;16.00;;;;;8.35;52.67;100177.13;2022433;28;3570050;-74
2023/03/07 04:16:08;;;;;;;;;22.33;20.00;;;;;8.36;52.53;100176.25;2040056;28;3558573;-74
2023/03/07 04:17:18;;;;;;;;;14.00;12.00;;;;;8.35;52.45;100171.91;2023994;27;2800270;-74
2023/03/07 04:18:30;;;;;;;;;23.00;21.00;;;;;8.36;52.54;100179.72;2042724;27;3568998;-74
2023/03/07 04:19:42;;;;;;;;;24.33;21.33;;;;;8.35;52.10;100175.38;2038764;27;3572142;-74
2023/03/07 04:20:54;;;;;;;;;26.67;23.67;;;;;8.36;52.39;100174.50;2039899;28;3576297;-74
2023/03/07 04:22:06;;;;;;;;;22.67;20.67;;;;;8.36;52.82;100178.88;2038059;27;3581520;-74
2023/03/07 04:23:19;;;;;;;;;21.67;18.33;;;;;8.37;52.65;100181.44;2042999;27;3567967;-74
2023/03/07 04:24:30;;;;;;;;;20.67;20.00;;;;;8.36;52.28;100181.50;2018992;28;3575231;-74
2023/03/07 04:25:54;;;;;;;;;22.00;21.00;;;;;8.37;52.53;100178.81;2037795;27;3555449;-74
2023/03/07 04:27:06;;;;;;;;;20.67;20.67;;;;;8.36;52.49;100179.72;2020604;27;3579490;-74
2023/03/07 04:28:22;;;;;;;;;22.43;21.14;;;;;8.37;52.94;100180.59;2045153;27;1841953;-74
2023/03/07 04:29:34;;;;;;;;;23.00;22.67;;;;;8.37;52.70;100177.97;2019706;28;3575245;-74
2023/03/07 04:30:48;;;;;;;;;25.00;21.00;;;;;8.36;52.52;100174.50;2039604;28;3577327;-74
2023/03/07 04:32:01;;;;;;;;;24.83;22.50;;;;;8.37;52.57;100181.44;2052135;28;1846159;-74
2023/03/07 04:33:13;;;;;;;;;22.00;20.67;;;;;8.37;52.52;100180.59;2000394;28;3578384;-74
2023/03/07 04:34:25;;;;;;;;;24.00;19.67;;;;;8.37;52.71;100180.59;2040636;27;3583592;-74
2023/03/07 04:35:37;;;;;;;;;24.67;22.33;;;;;8.37;53.05;100178.81;2040044;27;3577322;-74
2023/03/07 04:36:49;;;;;;;;;20.67;18.67;;;;;8.38;52.41;100184.91;2023214;28;2829521;-74
2023/03/07 04:38:00;;;;;;;;;26.00;21.67;;;;;8.37;52.69;100177.97;2020392;28;3579390;-74
2023/03/07 04:39:12;;;;;;;;;24.33;19.33;;;;;8.38;52.67;100180.53;2034905;28;3571100;-74
2023/03/07 04:40:24;;;;;;;;;29.00;21.00;;;;;8.37;52.22;100176.19;2038237;27;3595082;-74
2023/03/07 04:41:36;;;;;;;;;25.00;20.67;;;;;8.37;52.69;100175.34;2038862;28;3587775;-74
2023/03/07 04:42:48;;;;;;;;;27.67;18.00;;;;;8.36;52.83;100181.50;2031606;28;3596073;-74
2023/03/07 04:43:59;;;;;;;;;23.00;18.33;;;;;8.33;52.18;100174.59;2032949;28;3579437;-74
2023/03/07 04:45:11;;;;;;;;;27.33;21.33;;;;;8.33;52.95;100177.19;2031353;27;3577342;-74
2023/03/07 04:46:24;;;;;;;;;25.00;21.00;;;;;8.33;52.73;100177.19;2038174;28;3583656;-74
2023/03/07 04:47:35;;;;;;;;;24.50;22.50;;;;;8.34;52.65;100168.47;2024035;28;2850264;-74
2023/03/07 04:48:47;;;;;;;;;25.00;19.67;;;;;8.33;52.73;100170.22;2009289;28;3577280;-74
2023/03/07 04:49:58;;;;;;;;;24.25;20.25;;;;;8.33;52.87;100167.59;2049087;28;1848300;-74
2023/03/07 04:51:10;;;;;;;;;22.80;18.60;;;;;8.33;52.92;100164.13;2018335;28;2843983;-74
2023/03/07 04:52:22;;;;;;;;;25.00;17.67;;;;;8.33;52.49;100169.34;2009896;28;3587799;-74
2023/03/07 04:53:34;;;;;;;;;20.00;18.33;;;;;8.33;52.77;100172.84;2038361;28;3575247;-74
2023/03/07 04:54:45;;;;;;;;;15.50;10.50;;;;;8.34;53.09;100168.47;2038813;28;2808638;-74
2023/03/07 04:56:02;;;;;;;;;21.80;19.00;;;;;8.34;53.00;100163.22;2043315;27;3577311;-74
2023/03/07 04:57:14;;;;;;;;;25.00;22.33;;;;;8.33;53.10;100164.13;2023606;27;3568990;-74
2023/03/07 04:58:27;;;;;;;;;22.67;19.00;;;;;8.33;52.91;100164.97;2033017;27;3577323;-74
2023/03/07 04:59:38;;;;;;;;;22.00;19.50;;;;;8.33;53.02;100164.97;2024877;27;2828390;-74
2023/03/07 05:00:50;;;;;;;;;21.60;19.00;;;;;8.32;52.62;100158.00;2043579;27;2812795;-74
2023/03/07 05:02:10;;;;;;;;;27.67;23.83;;;;;8.33;52.75;100161.50;2036311;28;2843990;-74
2023/03/07 05:03:21;;;;;;;;;18.00;14.00;;;;;8.32;52.84;100157.19;2000568;28;2799240;-74
2023/03/07 05:04:33;;;;;;;;;20.00;19.67;;;;;8.31;52.83;100156.31;1999965;27;2831567;-74
2023/03/07 05:05:45;;;;;;;;;21.33;19.33;;;;;8.29;52.85;100158.13;2023746;27;3573165;-74
2023/03/07 05:06:56;;;;;;;;;22.67;19.67;;;;;8.28;52.59;100159.03;2038755;27;3583679;-74
2023/03/07 05:08:08;;;;;;;;;24.67;21.33;;;;;8.29;52.56;100152.91;2039176;27;3583592;-74
2023/03/07 05:09:20;;;;;;;;;21.00;18.00;;;;;8.28;52.65;100153.78;2039888;28;3563846;-74
2023/03/07 05:10:33;;;;;;;;;22.67;18.33;;;;;8.27;52.78;100159.91;2041867;28;3581845;-73
2023/03/07 05:11:45;;;;;;;;;27.67;22.67;;;;;8.25;52.65;100156.50;2024932;27;3587746;-73
2023/03/07 05:12:56;;;;;;;;;25.00;21.33;;;;;8.26;52.90;100154.75;2037530;28;3583597;-73
2023/03/07 05:14:08;;;;;;;;;21.67;19.00;;;;;8.24;52.53;100152.19;2039260;27;3565853;-73
2023/03/07 05:15:20;;;;;;;;;20.67;17.33;;;;;8.22;52.48;100148.78;2045904;27;2826448;-73
2023/03/07 05:16:32;;;;;;;;;28.00;22.00;;;;;8.22;52.72;100156.63;2024959;27;3581488;-74
2023/03/07 05:17:45;;;;;;;;;18.00;14.83;;;;;8.22;53.04;100156.63;2053438;28;1824248;-73
2023/03/07 05:18:59;;;;;;;;;23.83;20.83;;;;;8.21;52.71;100154.91;2022926;28;1846141;-74
2023/03/07 05:20:11;;;;;;;;;18.50;17.00;;;;;8.20;53.12;100154.03;2009799;27;2825262;-74
2023/03/07 05:21:23;;;;;;;;;25.33;18.33;;;;;8.19;52.81;100152.34;2024686;28;3569375;-73
2023/03/07 05:22:35;;;;;;;;;26.00;18.67;;;;;8.20;53.27;100148.81;2041834;27;3586706;-74
2023/03/07 05:23:46;;;;;;;;;26.00;19.00;;;;;8.19;52.64;100152.34;2027113;28;3578388;-73
2023/03/07 05:24:58;;;;;;;;;25.67;19.00;;;;;8.20;52.71;100155.78;2041471;27;3581581;-74
2023/03/07 05:26:11;;;;;;;;;23.17;21.00;;;;;8.19;52.51;100152.34;2054600;27;2829794;-73
2023/03/07 05:27:23;;;;;;;;;22.00;20.67;;;;;8.18;52.67;100150.63;2009897;28;3575417;-74
2023/03/07 05:28:35;;;;;;;;;20.67;19.00;;;;;8.19;53.24;100151.47;2033412;28;3575236;-74